Time;durP1;ratioP1;P1;durP2;ratioP2;P2;SDS_P1;SDS_P2;PMS_P1;PMS_P2;Temp;Humidity;BMP_temperature;BMP_pressure;BME280_temperature;BME280_humidity;BME280_pressure;Samples;Min_cycle;Max_cycle;Signal;HPM_P1;HPM_P2
2023/10/31 00:01:11;;;;;;;;;;;;;;;21.05;43.99;100950.07;103561;1296;62229;-81
2023/10/31 00:03:37;;;;;;;;;;;;;;;21.06;44.19;100951.15;103525;1290;62210;-81
2023/10/31 00:06:03;;;;;;;;;;;;;;;21.05;44.15;100943.30;103517;1290;62113;-81
2023/10/31 00:08:28;;;;;;;;;;;;;;;21.05;44.04;100937.72;103571;1290;62238;-81
2023/10/31 00:10:53;;;;;;;;;;;;;;;21.06;44.05;100936.65;103483;1296;62210;-81
2023/10/31 00:13:19;;;;;;;;;;;;;;;21.06;44.09;100938.60;103575;1295;62285;-81
2023/10/31 00:15:44;;;;;;;;;;;;;;;21.06;44.13;100935.38;103502;1290;62120;-81
2023/10/31 00:18:10;;;;;;;;;;;;;;;21.06;44.15;100938.39;103478;1290;62146;-81
2023/10/31 00:20:35;;;;;;;;;;;;;;;21.06;43.99;100935.00;103538;1290;62192;-81
2023/10/31 00:23:01;;;;;;;;;;;;;;;21.06;44.02;100933.77;103487;1290;62192;-81
2023/10/31 00:25:26;;;;;;;;;;;;;;;21.05;44.00;100931.08;103566;1296;62207;-81
2023/10/31 00:27:52;;;;;;;;;;;;;;;21.06;44.09;100927.13;103441;1294;62112;-81
2023/10/31 00:30:17;;;;;;;;;;;;;;;21.06;44.06;100926.42;103382;1296;62302;-81
2023/10/31 00:32:43;;;;;;;;;;;;;;;21.06;44.10;100927.65;103268;1293;62467;-81
2023/10/31 00:35:08;;;;;;;;;;;;;;;21.06;44.05;100917.13;103515;1296;62207;-81
2023/10/31 00:37:34;;;;;;;;;;;;;;;21.06;44.04;100919.80;103431;1293;62886;-82
2023/10/31 00:39:59;;;;;;;;;;;;;;;21.06;44.08;100913.54;103200;1293;62663;-81
2023/10/31 00:42:25;;;;;;;;;;;;;;;21.06;44.01;100914.05;103267;1299;62222;-81
2023/10/31 00:44:50;;;;;;;;;;;;;;;21.06;43.98;100911.94;103299;1294;62261;-81
2023/10/31 00:47:17;;;;;;;;;;;;;;;21.06;44.05;100911.40;103400;1296;62148;-81
2023/10/31 00:49:43;;;;;;;;;;;;;;;21.06;44.05;100910.84;103436;1292;62152;-81
2023/10/31 00:52:09;;;;;;;;;;;;;;;21.06;43.97;100901.20;103237;1298;62311;-81
2023/10/31 00:54:34;;;;;;;;;;;;;;;21.05;44.08;100901.59;103393;1293;63382;-81
2023/10/31 00:57:00;;;;;;;;;;;;;;;21.06;44.04;100903.69;103346;1296;62138;-81
2023/10/31 00:59:25;;;;;;;;;;;;;;;21.05;43.90;100896.73;103402;1296;62317;-81
2023/10/31 01:01:50;;;;;;;;;;;;;;;21.06;44.01;100893.69;103640;1294;62186;-82
2023/10/31 01:04:16;;;;;;;;;;;;;;;21.05;44.02;100889.42;103511;1290;62268;-82
2023/10/31 01:06:42;;;;;;;;;;;;;;;21.06;43.96;100889.92;103544;1294;62246;-82
2023/10/31 01:09:07;;;;;;;;;;;;;;;21.05;44.00;100890.13;103472;1291;62190;-82
2023/10/31 01:11:33;;;;;;;;;;;;;;;21.05;43.94;100890.50;103521;1296;62229;-82
2023/10/31 01:13:59;;;;;;;;;;;;;;;21.05;43.98;100893.00;103512;1292;62289;-82
2023/10/31 01:16:24;;;;;;;;;;;;;;;21.05;43.92;100889.94;103476;1290;62183;-82
2023/10/31 01:18:50;;;;;;;;;;;;;;;21.05;44.07;100887.27;103402;1290;62279;-82
2023/10/31 01:21:16;;;;;;;;;;;;;;;21.04;44.01;100881.95;103459;1290;62114;-82
2023/10/31 01:23:41;;;;;;;;;;;;;;;21.05;43.92;100876.22;103474;1290;62913;-82
2023/10/31 01:26:07;;;;;;;;;;;;;;;21.04;43.93;100877.48;103538;1290;62510;-82
2023/10/31 01:28:32;;;;;;;;;;;;;;;21.05;44.08;100876.92;103447;1289;62206;-82
2023/10/31 01:30:58;;;;;;;;;;;;;;;21.05;44.00;100878.38;103481;1296;62274;-82
2023/10/31 01:33:23;;;;;;;;;;;;;;;21.05;43.95;100881.23;103515;1290;62200;-82
2023/10/31 01:35:49;;;;;;;;;;;;;;;21.04;43.85;100879.64;103476;1290;62131;-82
2023/10/31 01:38:14;;;;;;;;;;;;;;;21.04;43.85;100877.85;103396;1289;62189;-82
2023/10/31 01:40:40;;;;;;;;;;;;;;;21.04;44.01;100882.31;103490;1290;62281;-82
2023/10/31 01:43:05;;;;;;;;;;;;;;;21.05;43.79;100882.13;103523;1290;62216;-82
2023/10/31 01:45:31;;;;;;;;;;;;;;;21.04;43.95;100879.29;103511;1290;62369;-82
2023/10/31 01:47:56;;;;;;;;;;;;;;;21.05;43.90;100884.64;103498;1290;62215;-82
2023/10/31 01:50:22;;;;;;;;;;;;;;;21.04;44.05;100878.58;103445;1293;62232;-82
2023/10/31 01:52:47;;;;;;;;;;;;;;;21.04;44.01;100886.09;103452;1289;62235;-82
2023/10/31 01:55:13;;;;;;;;;;;;;;;21.04;44.02;100886.83;103443;1291;62260;-82
2023/10/31 01:57:38;;;;;;;;;;;;;;;21.04;43.83;100884.16;103448;1294;62148;-82
2023/10/31 02:00:05;;;;;;;;;;;;;;;21.04;43.87;100884.50;103360;1293;62350;-82
2023/10/31 02:02:32;;;;;;;;;;;;;;;21.04;43.87;100886.14;103256;1293;62200;-82
2023/10/31 02:04:58;;;;;;;;;;;;;;;21.03;43.90;100888.48;103256;1298;62203;-82
2023/10/31 02:07:23;;;;;;;;;;;;;;;21.03;43.96;100887.75;103304;1292;62158;-82
2023/10/31 02:09:48;;;;;;;;;;;;;;;21.03;43.92;100888.85;103258;1298;62239;-82
2023/10/31 02:12:40;;;;;;;;;;;;;;;21.03;43.89;100884.58;103360;1298;63318;-82
2023/10/31 02:15:06;;;;;;;;;;;;;;;21.03;44.01;100879.92;103373;1293;62141;-82
2023/10/31 02:17:31;;;;;;;;;;;;;;;21.03;43.97;100879.55;103112;1293;62198;-82
2023/10/31 02:19:57;;;;;;;;;;;;;;;21.03;43.94;100877.94;103258;1297;62987;-82
2023/10/31 02:22:23;;;;;;;;;;;;;;;21.03;43.72;100877.96;102992;1299;472644;-82
2023/10/31 02:24:49;;;;;;;;;;;;;;;21.03;43.89;100876.88;103353;1293;62224;-82
2023/10/31 02:27:16;;;;;;;;;;;;;;;21.03;43.87;100873.66;103343;1292;62232;-82
2023/10/31 02:29:41;;;;;;;;;;;;;;;21.02;43.86;100868.86;103261;1293;62391;-82
2023/10/31 02:32:07;;;;;;;;;;;;;;;21.03;43.92;100869.20;103185;1290;71516;-83
2023/10/31 02:34:34;;;;;;;;;;;;;;;21.03;43.86;100868.64;103435;1290;62229;-82
2023/10/31 02:36:59;;;;;;;;;;;;;;;21.03;43.83;100870.10;103525;1296;62187;-83
2023/10/31 02:39:25;;;;;;;;;;;;;;;21.02;43.89;100867.61;103430;1293;62173;-83
2023/10/31 02:41:50;;;;;;;;;;;;;;;21.02;43.80;100870.48;103448;1293;62257;-83
2023/10/31 02:44:16;;;;;;;;;;;;;;;21.02;43.89;100869.79;103429;1295;62180;-82
2023/10/31 02:46:41;;;;;;;;;;;;;;;21.03;43.90;100863.49;103538;1291;62186;-82
2023/10/31 02:49:08;;;;;;;;;;;;;;;21.02;43.81;100866.02;103444;1295;62229;-82
2023/10/31 02:51:35;;;;;;;;;;;;;;;21.02;43.89;100860.66;103532;1289;62197;-82
2023/10/31 02:54:00;;;;;;;;;;;;;;;21.01;43.82;100861.08;103448;1296;62081;-82
2023/10/31 02:56:26;;;;;;;;;;;;;;;21.02;43.88;100863.56;103478;1290;62102;-81
2023/10/31 02:58:51;;;;;;;;;;;;;;;21.02;43.84;100857.27;103442;1290;62208;-81
2023/10/31 03:01:19;;;;;;;;;;;;;;;21.02;43.78;100856.57;103538;1295;62087;-81
2023/10/31 03:03:45;;;;;;;;;;;;;;;21.01;43.89;100855.70;103501;1290;62178;-81
2023/10/31 03:06:11;;;;;;;;;;;;;;;21.01;43.86;100861.23;103389;1290;62180;-81
2023/10/31 03:08:36;;;;;;;;;;;;;;;21.01;43.84;100862.52;103495;1290;62125;-81
2023/10/31 03:11:02;;;;;;;;;;;;;;;21.01;43.96;100861.77;103586;1294;62112;-83
2023/10/31 03:13:28;;;;;;;;;;;;;;;21.02;43.97;100863.56;103512;1293;62116;-82
2023/10/31 03:15:53;;;;;;;;;;;;;;;21.01;43.93;100868.95;103408;1290;62088;-82
2023/10/31 03:18:19;;;;;;;;;;;;;;;21.01;43.85;100868.62;103508;1294;62233;-82
2023/10/31 03:20:48;;;;;;;;;;;;;;;21.01;43.84;100874.66;103448;1296;62177;-81
2023/10/31 03:23:13;;;;;;;;;;;;;;;21.01;43.86;100871.11;103493;1295;62192;-82
2023/10/31 03:25:39;;;;;;;;;;;;;;;21.01;43.79;100869.86;103414;1294;62190;-81
2023/10/31 03:28:07;;;;;;;;;;;;;;;21.01;43.81;100862.17;103560;1293;62289;-81
2023/10/31 03:30:32;;;;;;;;;;;;;;;21.01;43.86;100861.10;103534;1295;62011;-82
2023/10/31 03:32:58;;;;;;;;;;;;;;;21.00;43.83;100861.46;103515;1296;62115;-82
2023/10/31 03:35:23;;;;;;;;;;;;;;;21.01;43.79;100860.39;103510;1289;62134;-82
2023/10/31 03:37:48;;;;;;;;;;;;;;;21.00;43.85;100862.56;103514;1293;62198;-82
2023/10/31 03:40:14;;;;;;;;;;;;;;;21.00;43.86;100863.80;103455;1290;72537;-82
2023/10/31 03:42:39;;;;;;;;;;;;;;;21.00;43.94;100865.27;103550;1290;62177;-82
2023/10/31 03:45:06;;;;;;;;;;;;;;;21.00;43.87;100862.97;103486;1296;62183;-82
2023/10/31 03:47:32;;;;;;;;;;;;;;;21.00;43.87;100861.16;103509;1289;62151;-82
2023/10/31 03:49:57;;;;;;;;;;;;;;;21.00;43.90;100857.38;103420;1290;62539;-82
2023/10/31 03:52:23;;;;;;;;;;;;;;;20.99;43.77;100855.85;103524;1290;62126;-82
2023/10/31 03:54:48;;;;;;;;;;;;;;;21.00;43.87;100858.31;103509;1295;74067;-82
2023/10/31 03:57:14;;;;;;;;;;;;;;;21.00;43.79;100859.39;103452;1290;62172;-82
2023/10/31 03:59:39;;;;;;;;;;;;;;;20.99;43.88;100861.20;103449;1295;62116;-82
2023/10/31 04:02:05;;;;;;;;;;;;;;;20.99;43.97;100857.28;103439;1290;62177;-82
2023/10/31 04:04:30;;;;;;;;;;;;;;;21.00;43.83;100861.38;103416;1296;62208;-82
2023/10/31 04:06:56;;;;;;;;;;;;;;;20.99;43.89;100859.98;103543;1290;62231;-82
2023/10/31 04:09:21;;;;;;;;;;;;;;;20.99;43.79;100856.94;103508;1296;63155;-82
2023/10/31 04:11:47;;;;;;;;;;;;;;;20.99;43.82;100856.07;103501;1295;62153;-82
2023/10/31 04:14:13;;;;;;;;;;;;;;;20.99;43.74;100856.23;103423;1296;63268;-82
2023/10/31 04:16:39;;;;;;;;;;;;;;;20.98;43.81;100855.55;103427;1290;62183;-82
2023/10/31 04:19:05;;;;;;;;;;;;;;;20.99;43.70;100855.53;103493;1290;62231;-82
2023/10/31 04:21:31;;;;;;;;;;;;;;;20.98;43.78;100852.32;103523;1295;62277;-82
2023/10/31 04:23:57;;;;;;;;;;;;;;;20.99;43.79;100849.09;103412;1295;61974;-82
2023/10/31 04:26:22;;;;;;;;;;;;;;;20.98;43.86;100846.08;103377;1289;62288;-82
2023/10/31 04:28:48;;;;;;;;;;;;;;;20.98;43.77;100845.36;103536;1295;62207;-82
2023/10/31 04:31:13;;;;;;;;;;;;;;;20.98;43.77;100845.90;103483;1290;62249;-82
2023/10/31 04:33:39;;;;;;;;;;;;;;;20.98;43.87;100845.92;103515;1291;62189;-82
2023/10/31 04:36:04;;;;;;;;;;;;;;;20.98;43.80;100847.34;103556;1293;62207;-83
2023/10/31 04:38:30;;;;;;;;;;;;;;;20.98;43.69;100849.84;103543;1292;62197;-83
2023/10/31 04:40:55;;;;;;;;;;;;;;;20.98;43.77;100849.16;103462;1296;62635;-82
2023/10/31 04:43:21;;;;;;;;;;;;;;;20.98;43.93;100853.43;103509;1291;62152;-82
2023/10/31 04:45:46;;;;;;;;;;;;;;;20.98;43.80;100850.58;103576;1295;62126;-82
2023/10/31 04:48:12;;;;;;;;;;;;;;;20.97;43.81;100845.77;103434;1295;62193;-82
2023/10/31 04:50:38;;;;;;;;;;;;;;;20.98;43.68;100845.39;103566;1295;62247;-82
2023/10/31 04:53:04;;;;;;;;;;;;;;;20.98;43.76;100843.77;103602;1297;62183;-82
2023/10/31 04:55:29;;;;;;;;;;;;;;;20.98;43.71;100845.95;103505;1297;62205;-82
2023/10/31 04:57:55;;;;;;;;;;;;;;;20.98;43.89;100846.29;103571;1295;62276;-82
2023/10/31 05:00:20;;;;;;;;;;;;;;;20.98;43.79;100847.52;103573;1295;62231;-82
2023/10/31 05:02:45;;;;;;;;;;;;;;;20.98;43.74;100847.90;103460;1299;62206;-82
2023/10/31 05:05:11;;;;;;;;;;;;;;;20.98;43.74;100839.85;103402;1295;62145;-82
2023/10/31 05:07:37;;;;;;;;;;;;;;;20.98;43.62;100838.77;103430;1294;62238;-82
2023/10/31 05:10:03;;;;;;;;;;;;;;;20.98;43.72;100842.20;103643;1290;62151;-82
2023/10/31 05:12:28;;;;;;;;;;;;;;;20.97;43.68;100841.67;103713;1289;62224;-82
2023/10/31 05:14:53;;;;;;;;;;;;;;;20.96;43.61;100841.91;103603;1296;72464;-82
2023/10/31 05:17:19;;;;;;;;;;;;;;;20.96;43.65;100844.77;103603;1291;62235;-82
2023/10/31 05:19:44;;;;;;;;;;;;;;;20.97;43.54;100842.80;103628;1290;62311;-82
2023/10/31 05:22:10;;;;;;;;;;;;;;;20.97;43.64;100844.03;103592;1293;62272;-82
2023/10/31 05:24:36;;;;;;;;;;;;;;;20.97;43.65;100846.55;103530;1296;62221;-82
2023/10/31 05:27:02;;;;;;;;;;;;;;;20.97;43.50;100846.55;103567;1293;62290;-82
2023/10/31 05:29:30;;;;;;;;;;;;;;;20.97;43.50;100848.29;103542;1291;75271;-82
2023/10/31 05:31:56;;;;;;;;;;;;;;;20.97;43.35;100848.85;103614;1292;62161;-82
2023/10/31 05:34:21;;;;;;;;;;;;;;;20.97;43.38;100844.04;103488;1297;62373;-82
2023/10/31 05:36:47;;;;;;;;;;;;;;;20.98;43.35;100847.91;103484;1295;62249;-82
2023/10/31 05:39:12;;;;;;;;;;;;;;;20.97;43.42;100846.33;103530;1292;62389;-82
2023/10/31 05:41:38;;;;;;;;;;;;;;;20.98;43.48;100845.41;103577;1295;62208;-82
2023/10/31 05:44:04;;;;;;;;;;;;;;;20.97;43.46;100843.45;103566;1290;62193;-82
2023/10/31 05:46:29;;;;;;;;;;;;;;;20.98;43.34;100850.95;103573;1292;62170;-82
2023/10/31 05:48:55;;;;;;;;;;;;;;;20.97;43.49;100853.48;103485;1296;62218;-82
2023/10/31 05:51:20;;;;;;;;;;;;;;;20.98;43.46;100857.03;103459;1290;62135;-81
2023/10/31 05:53:47;;;;;;;;;;;;;;;20.98;43.29;100853.45;103494;1296;62213;-81
2023/10/31 05:56:13;;;;;;;;;;;;;;;20.98;43.25;100853.43;103410;1291;62192;-81
2023/10/31 05:58:39;;;;;;;;;;;;;;;20.98;43.29;100854.68;103649;1294;62527;-81
2023/10/31 06:01:04;;;;;;;;;;;;;;;20.98;43.29;100853.97;103717;1290;62180;-81
2023/10/31 06:03:30;;;;;;;;;;;;;;;20.98;43.22;100850.38;103699;1290;62149;-82
2023/10/31 06:05:55;;;;;;;;;;;;;;;20.98;43.25;100852.54;103948;1290;62101;-82
2023/10/31 06:08:24;;;;;;;;;;;;;;;20.98;43.27;100854.49;103749;1290;62201;-82
2023/10/31 06:10:51;;;;;;;;;;;;;;;20.98;43.22;100858.24;103833;1290;62209;-82
2023/10/31 06:13:16;;;;;;;;;;;;;;;20.98;43.16;100855.56;103820;1290;62206;-82
2023/10/31 06:15:42;;;;;;;;;;;;;;;20.99;43.24;100858.38;104080;1295;62740;-82
2023/10/31 06:18:07;;;;;;;;;;;;;;;20.99;43.25;100864.63;103648;1294;63119;-82
2023/10/31 06:20:34;;;;;;;;;;;;;;;20.99;43.18;100861.60;103933;1291;62209;-82
2023/10/31 06:23:03;;;;;;;;;;;;;;;20.99;43.18;100864.10;103847;1295;72655;-82
2023/10/31 06:25:29;;;;;;;;;;;;;;;20.99;43.25;100863.17;104097;1294;75420;-82
2023/10/31 06:27:55;;;;;;;;;;;;;;;21.00;43.10;100865.23;103972;1291;62145;-82
2023/10/31 06:30:20;;;;;;;;;;;;;;;21.00;43.08;100865.95;103981;1290;62291;-82
2023/10/31 06:32:46;;;;;;;;;;;;;;;21.01;43.08;100865.91;103810;1290;62109;-82
2023/10/31 06:35:11;;;;;;;;;;;;;;;21.02;43.08;100857.12;104108;1289;62183;-82
2023/10/31 06:37:36;;;;;;;;;;;;;;;21.01;43.22;100855.70;104055;1290;75449;-82
2023/10/31 06:40:02;;;;;;;;;;;;;;;21.02;43.21;100856.92;103905;1290;62193;-82
2023/10/31 06:42:28;;;;;;;;;;;;;;;21.02;43.16;100852.45;103724;1290;62142;-82
2023/10/31 06:44:54;;;;;;;;;;;;;;;21.02;43.10;100854.92;103787;1290;62215;-82
2023/10/31 06:47:19;;;;;;;;;;;;;;;21.02;42.98;100857.08;103822;1295;62140;-82
2023/10/31 06:49:45;;;;;;;;;;;;;;;21.02;43.19;100854.36;103794;1289;62135;-81
2023/10/31 06:52:10;;;;;;;;;;;;;;;21.02;43.06;100850.66;103922;1290;62208;-82
2023/10/31 06:54:36;;;;;;;;;;;;;;;21.02;42.94;100853.83;103925;1289;62201;-82
2023/10/31 06:57:01;;;;;;;;;;;;;;;21.01;43.09;100853.38;103743;1290;62244;-82
2023/10/31 06:59:29;;;;;;;;;;;;;;;21.01;43.04;100853.21;103737;1296;62289;-81
2023/10/31 07:01:54;;;;;;;;;;;;;;;21.00;43.07;100855.58;103763;1290;62059;-82
2023/10/31 07:04:20;;;;;;;;;;;;;;;20.99;43.07;100854.58;103868;1293;62129;-82
2023/10/31 07:06:45;;;;;;;;;;;;;;;21.00;43.11;100854.59;103710;1290;62290;-82
2023/10/31 07:09:11;;;;;;;;;;;;;;;20.99;42.94;100853.89;103707;1290;62283;-82
2023/10/31 07:11:36;;;;;;;;;;;;;;;20.99;42.96;100848.52;103770;1289;62210;-82
2023/10/31 07:14:05;;;;;;;;;;;;;;;20.99;42.91;100841.54;103667;1289;62113;-82
2023/10/31 07:16:31;;;;;;;;;;;;;;;20.99;42.92;100841.73;103676;1290;63406;-82
2023/10/31 07:18:57;;;;;;;;;;;;;;;21.00;42.99;100840.60;103836;1293;62053;-82
2023/10/31 07:21:22;;;;;;;;;;;;;;;21.00;42.85;100843.63;103854;1290;63722;-82
2023/10/31 07:23:48;;;;;;;;;;;;;;;21.00;43.00;100842.38;103687;1290;62146;-82
2023/10/31 07:26:15;;;;;;;;;;;;;;;21.00;42.84;100842.55;103569;1290;62285;-82
2023/10/31 07:28:41;;;;;;;;;;;;;;;21.00;42.90;100841.82;103602;1291;63095;-82
2023/10/31 07:31:07;;;;;;;;;;;;;;;21.00;42.90;100841.27;103566;1295;62695;-82
2023/10/31 07:33:33;;;;;;;;;;;;;;;21.01;42.88;100838.56;103515;1290;63128;-82
2023/10/31 07:35:58;;;;;;;;;;;;;;;21.01;42.75;100837.84;103710;1296;62205;-82
2023/10/31 07:38:24;;;;;;;;;;;;;;;21.01;42.86;100840.85;103661;1289;62198;-82
2023/10/31 07:40:50;;;;;;;;;;;;;;;21.01;42.88;100845.50;103778;1290;62224;-82
2023/10/31 07:43:15;;;;;;;;;;;;;;;21.02;42.78;100843.88;103693;1291;62532;-82
2023/10/31 07:45:41;;;;;;;;;;;;;;;21.01;42.85;100839.42;103675;1289;62214;-82
2023/10/31 07:48:08;;;;;;;;;;;;;;;21.01;42.87;100837.31;103696;1290;62156;-82
2023/10/31 07:50:33;;;;;;;;;;;;;;;21.01;42.92;100832.48;103786;1290;62170;-82
2023/10/31 07:52:59;;;;;;;;;;;;;;;21.01;42.94;100826.22;103819;1290;62183;-82
2023/10/31 07:55:25;;;;;;;;;;;;;;;21.01;42.94;100822.97;103807;1290;62157;-82
2023/10/31 07:57:51;;;;;;;;;;;;;;;21.01;43.04;100814.94;103878;1291;62277;-82
2023/10/31 08:00:17;;;;;;;;;;;;;;;21.01;43.08;100810.46;103912;1293;62114;-82
2023/10/31 08:02:42;;;;;;;;;;;;;;;21.02;43.11;100803.08;103801;1290;63720;-82
2023/10/31 08:05:08;;;;;;;;;;;;;;;21.02;43.01;100796.44;103933;1294;72336;-83
2023/10/31 08:07:33;;;;;;;;;;;;;;;21.01;43.26;100796.33;103746;1291;62238;-82
2023/10/31 08:09:59;;;;;;;;;;;;;;;21.00;43.22;100790.67;103815;1290;62148;-82
2023/10/31 08:12:24;;;;;;;;;;;;;;;21.00;43.21;100787.29;103766;1290;62221;-82
2023/10/31 08:14:50;;;;;;;;;;;;;;;21.00;43.26;100781.53;103837;1290;62143;-82
2023/10/31 08:17:16;;;;;;;;;;;;;;;21.01;43.20;100779.88;104163;1290;73547;-82
2023/10/31 08:19:42;;;;;;;;;;;;;;;21.01;43.29;100778.27;104087;1289;62046;-82
2023/10/31 08:22:08;;;;;;;;;;;;;;;21.01;43.36;100782.02;103765;1293;62110;-82
2023/10/31 08:24:35;;;;;;;;;;;;;;;21.01;43.31;100774.11;104061;1290;62175;-82
2023/10/31 08:27:02;;;;;;;;;;;;;;;21.02;43.40;100767.45;103861;1289;62199;-82
2023/10/31 08:29:27;;;;;;;;;;;;;;;21.02;43.39;100764.19;103632;1290;62230;-82
2023/10/31 08:31:53;;;;;;;;;;;;;;;21.03;43.34;100760.02;103619;1290;62145;-81
2023/10/31 08:34:19;;;;;;;;;;;;;;;21.03;43.45;100750.03;103671;1290;62157;-81
2023/10/31 08:36:44;;;;;;;;;;;;;;;21.03;43.33;100742.86;103707;1290;62260;-81
2023/10/31 08:39:10;;;;;;;;;;;;;;;21.03;43.31;100738.02;103697;1290;73749;-81
2023/10/31 08:41:37;;;;;;;;;;;;;;;21.03;43.29;100733.91;103936;1293;61966;-82
2023/10/31 08:44:03;;;;;;;;;;;;;;;21.03;43.40;100728.33;103676;1290;62305;-82
2023/10/31 08:46:28;;;;;;;;;;;;;;;21.03;43.27;100720.11;103664;1290;62113;-81
2023/10/31 08:48:54;;;;;;;;;;;;;;;21.04;43.31;100716.15;103555;1295;62224;-81
2023/10/31 08:51:19;;;;;;;;;;;;;;;21.04;43.27;100713.81;103661;1290;62187;-82
2023/10/31 08:53:45;;;;;;;;;;;;;;;21.04;43.31;100709.86;103819;1290;62409;-81
2023/10/31 08:56:10;;;;;;;;;;;;;;;21.04;43.29;100706.08;103829;1290;62173;-81
2023/10/31 08:58:36;;;;;;;;;;;;;;;21.04;43.16;100696.60;103676;1290;62277;-81
2023/10/31 09:01:01;;;;;;;;;;;;;;;21.05;43.15;100688.32;103520;1290;62295;-81
2023/10/31 09:03:27;;;;;;;;;;;;;;;21.05;43.24;100684.01;103575;1290;62170;-81
2023/10/31 09:05:52;;;;;;;;;;;;;;;21.05;43.28;100682.59;103730;1290;62113;-81
2023/10/31 09:08:18;;;;;;;;;;;;;;;21.05;43.22;100678.99;103698;1290;62481;-81
2023/10/31 09:10:45;;;;;;;;;;;;;;;21.05;43.19;100671.30;103736;1295;62221;-82
2023/10/31 09:13:11;;;;;;;;;;;;;;;21.06;43.12;100668.38;103905;1289;72527;-82
2023/10/31 09:15:37;;;;;;;;;;;;;;;21.06;43.17;100664.64;103807;1289;62121;-81
2023/10/31 09:18:02;;;;;;;;;;;;;;;21.07;43.11;100662.07;103821;1289;64277;-82
2023/10/31 09:20:29;;;;;;;;;;;;;;;21.06;43.15;100663.52;103847;1290;62190;-81
2023/10/31 09:22:55;;;;;;;;;;;;;;;21.07;43.11;100659.71;103744;1290;62191;-81
2023/10/31 09:25:21;;;;;;;;;;;;;;;21.07;43.08;100658.46;103861;1294;62115;-81
2023/10/31 09:27:47;;;;;;;;;;;;;;;21.07;43.14;100660.42;103711;1289;62232;-81
2023/10/31 09:30:12;;;;;;;;;;;;;;;21.07;43.15;100654.84;103658;1291;62276;-81
2023/10/31 09:32:38;;;;;;;;;;;;;;;21.08;43.09;100654.65;103751;1292;62199;-81
2023/10/31 09:35:03;;;;;;;;;;;;;;;21.08;43.12;100653.55;103858;1291;62240;-81
2023/10/31 09:37:29;;;;;;;;;;;;;;;21.09;43.18;100648.50;103679;1290;62270;-81
2023/10/31 09:39:55;;;;;;;;;;;;;;;21.09;43.18;100642.77;103709;1290;63250;-81
2023/10/31 09:42:20;;;;;;;;;;;;;;;21.09;43.04;100634.66;103718;1290;62184;-81
2023/10/31 09:44:45;;;;;;;;;;;;;;;21.09;43.16;100633.77;103786;1290;62030;-81
2023/10/31 09:47:11;;;;;;;;;;;;;;;21.10;43.11;100628.55;103830;1293;62072;-82
2023/10/31 09:49:36;;;;;;;;;;;;;;;21.10;43.08;100623.52;104177;1289;62209;-81
2023/10/31 09:52:03;;;;;;;;;;;;;;;21.10;43.17;100616.00;104404;1289;62203;-81
2023/10/31 09:54:29;;;;;;;;;;;;;;;21.11;43.21;100614.16;104486;1290;62138;-81
2023/10/31 09:56:55;;;;;;;;;;;;;;;21.12;43.20;100611.63;104433;1290;62295;-81
2023/10/31 09:59:20;;;;;;;;;;;;;;;21.12;43.20;100609.40;104398;1289;60069;-81
2023/10/31 10:01:46;;;;;;;;;;;;;;;21.13;43.13;100605.06;104185;1290;62197;-81
2023/10/31 10:04:11;;;;;;;;;;;;;;;21.14;43.23;100601.63;104436;1290;62234;-81
2023/10/31 10:06:49;;;;;;;;;;;;;;;21.14;43.16;100597.31;104544;1290;62101;-81
2023/10/31 10:09:15;;;;;;;;;;;;;;;21.14;43.13;100595.83;104635;1290;72618;-81
2023/10/31 10:11:41;;;;;;;;;;;;;;;21.15;43.13;100589.19;104607;1290;62075;-81
2023/10/31 10:14:09;;;;;;;;;;;;;;;21.15;43.30;100583.63;104314;1290;60490;-81
2023/10/31 10:16:34;;;;;;;;;;;;;;;21.16;43.30;100581.91;104447;1294;62376;-81
2023/10/31 10:19:19;;;;;;;;;;;;;;;21.16;43.20;100574.77;104391;1289;62080;-81
2023/10/31 10:21:55;;;;;;;;;;;;;;;21.17;43.23;100571.51;104247;1290;75309;-81
2023/10/31 10:24:20;;;;;;;;;;;;;;;21.17;43.14;100566.27;104216;1289;62187;-82
2023/10/31 10:26:47;;;;;;;;;;;;;;;21.18;43.25;100563.23;104226;1292;62228;-79
2023/10/31 10:29:12;;;;;;;;;;;;;;;21.18;43.18;100564.80;103629;1290;62223;-81
2023/10/31 10:31:39;;;;;;;;;;;;;;;21.18;43.16;100563.77;104044;1294;62116;-81
2023/10/31 10:34:04;;;;;;;;;;;;;;;21.18;43.25;100566.41;104446;1289;62306;-81
2023/10/31 10:36:32;;;;;;;;;;;;;;;21.18;43.19;100565.69;104670;1293;61955;-81
2023/10/31 10:38:57;;;;;;;;;;;;;;;21.18;43.14;100559.42;105641;1289;62109;-82
2023/10/31 10:41:27;;;;;;;;;;;;;;;21.18;43.06;100554.75;104332;1290;62267;-81
2023/10/31 10:44:03;;;;;;;;;;;;;;;21.19;43.16;100550.21;104234;1290;62002;-81
2023/10/31 10:46:28;;;;;;;;;;;;;;;21.19;43.27;100547.14;104328;1289;62132;-81
2023/10/31 10:48:57;;;;;;;;;;;;;;;21.20;43.19;100542.09;104194;1288;62209;-81
2023/10/31 10:51:29;;;;;;;;;;;;;;;21.20;43.16;100536.58;104399;1289;75273;-81
2023/10/31 10:54:06;;;;;;;;;;;;;;;21.20;43.22;100534.89;104309;1289;63261;-82
2023/10/31 10:56:37;;;;;;;;;;;;;;;21.20;43.14;100528.46;104303;1289;62066;-81
2023/10/31 10:59:04;;;;;;;;;;;;;;;21.21;43.06;100521.09;104147;1290;73399;-81
2023/10/31 11:01:32;;;;;;;;;;;;;;;21.21;43.12;100516.97;104314;1291;61392;-81
2023/10/31 11:03:58;;;;;;;;;;;;;;;21.21;43.14;100509.63;104378;1290;60499;-82
2023/10/31 11:06:24;;;;;;;;;;;;;;;21.21;43.16;100505.33;104411;1289;62115;-81
2023/10/31 11:08:49;;;;;;;;;;;;;;;21.21;43.08;100499.80;104398;1290;62128;-81
2023/10/31 11:11:17;;;;;;;;;;;;;;;21.21;43.25;100495.11;104484;1288;62116;-81
2023/10/31 11:13:46;;;;;;;;;;;;;;;21.21;43.15;100490.98;104482;1290;62082;-81
2023/10/31 11:16:17;;;;;;;;;;;;;;;21.22;43.16;100491.48;104338;1290;62479;-81
2023/10/31 11:18:42;;;;;;;;;;;;;;;21.21;43.23;100486.33;104142;1288;72283;-81
2023/10/31 11:21:08;;;;;;;;;;;;;;;21.21;43.21;100490.09;104329;1290;62196;-82
2023/10/31 11:23:33;;;;;;;;;;;;;;;21.21;43.29;100491.66;104277;1289;62084;-82
2023/10/31 11:26:00;;;;;;;;;;;;;;;21.22;43.31;100490.55;104530;1290;62069;-82
2023/10/31 11:28:25;;;;;;;;;;;;;;;21.22;43.17;100488.59;104233;1289;62282;-81
2023/10/31 11:30:56;;;;;;;;;;;;;;;21.22;43.32;100482.16;104305;1289;62111;-81
2023/10/31 11:33:22;;;;;;;;;;;;;;;21.22;43.41;100482.88;104091;1289;75268;-81
2023/10/31 11:35:51;;;;;;;;;;;;;;;21.22;43.33;100477.10;104739;1289;59757;-82
2023/10/31 11:38:16;;;;;;;;;;;;;;;21.23;43.24;100471.32;104134;1288;62587;-81
2023/10/31 11:40:48;;;;;;;;;;;;;;;21.23;43.33;100466.67;104200;1288;62088;-81
2023/10/31 11:43:14;;;;;;;;;;;;;;;21.23;43.38;100457.20;104336;1288;75441;-81
2023/10/31 11:45:44;;;;;;;;;;;;;;;21.23;43.29;100455.58;104486;1290;62198;-81
2023/10/31 11:48:10;;;;;;;;;;;;;;;21.23;43.50;100452.37;104311;1290;62069;-82
2023/10/31 11:50:36;;;;;;;;;;;;;;;21.23;43.39;100451.27;104378;1291;61019;-82
2023/10/31 11:53:05;;;;;;;;;;;;;;;21.23;43.63;100452.33;104223;1294;62124;-82
2023/10/31 11:55:33;;;;;;;;;;;;;;;21.23;43.55;100451.27;104192;1293;63325;-82
2023/10/31 11:58:12;;;;;;;;;;;;;;;21.23;43.62;100443.79;106211;1289;59419;-80
2023/10/31 12:00:37;;;;;;;;;;;;;;;21.23;43.52;100439.98;104346;1293;72595;-82
2023/10/31 12:03:03;;;;;;;;;;;;;;;21.24;43.59;100434.19;103938;1290;62210;-82
2023/10/31 12:05:31;;;;;;;;;;;;;;;21.24;43.56;100432.41;103828;1289;62123;-81
2023/10/31 12:07:57;;;;;;;;;;;;;;;21.25;43.63;100431.29;103730;1290;63459;-82
2023/10/31 12:10:23;;;;;;;;;;;;;;;21.24;43.54;100427.05;103998;1289;62158;-82
2023/10/31 12:12:49;;;;;;;;;;;;;;;21.24;43.62;100421.33;103923;1293;60711;-82
2023/10/31 12:15:15;;;;;;;;;;;;;;;21.23;43.54;100413.67;103885;1293;62149;-81
2023/10/31 12:17:40;;;;;;;;;;;;;;;21.23;43.61;100410.81;103953;1290;62203;-82
2023/10/31 12:20:07;;;;;;;;;;;;;;;21.23;43.52;100403.90;103915;1290;62169;-82